createdAt,value
2022-09-25T00:01:26.603Z,73.50
2022-09-25T00:05:29.682Z,73.52
2022-09-25T00:09:32.885Z,73.61
2022-09-25T00:13:37.414Z,73.59
2022-09-25T00:17:40.364Z,73.47
2022-09-25T00:21:43.747Z,73.67
2022-09-25T00:25:54.295Z,73.82
2022-09-25T00:29:59.705Z,73.79
2022-09-25T00:34:05.299Z,73.76
2022-09-25T00:38:08.461Z,74.26
2022-09-25T00:42:14.121Z,74.42
2022-09-25T00:46:22.332Z,74.57
2022-09-25T00:50:35.119Z,74.79
2022-09-25T00:54:42.429Z,74.59
2022-09-25T00:58:45.665Z,74.59
2022-09-25T01:02:54.367Z,74.70
2022-09-25T01:06:57.520Z,74.57
2022-09-25T01:11:00.552Z,74.55
2022-09-25T01:15:03.730Z,74.85
2022-09-25T01:19:22.830Z,74.83
2022-09-25T01:23:48.834Z,74.99
2022-09-25T01:28:21.015Z,74.76
2022-09-25T01:32:34.060Z,74.76
2022-09-25T01:36:43.308Z,74.69
2022-09-25T01:40:55.321Z,75.09
2022-09-25T01:45:03.118Z,74.94
2022-09-25T01:49:13.316Z,75.23
2022-09-25T01:53:22.651Z,74.85
2022-09-25T01:57:32.881Z,75.18
2022-09-25T02:01:41.511Z,74.97
2022-09-25T02:05:49.783Z,75.03
2022-09-25T02:09:56.498Z,75.14
2022-09-25T02:14:06.669Z,75.33
2022-09-25T02:18:30.633Z,75.29
2022-09-25T02:22:35.924Z,75.36
2022-09-25T02:26:39.230Z,75.46
2022-09-25T02:30:43.708Z,75.58
2022-09-25T02:34:47.045Z,75.65
2022-09-25T02:38:54.973Z,75.67
2022-09-25T02:43:06.648Z,75.51
2022-09-25T02:47:20.128Z,75.74
2022-09-25T02:51:35.492Z,75.55
2022-09-25T02:55:45.168Z,76.03
2022-09-25T02:59:53.971Z,75.98
2022-09-25T03:04:00.236Z,76.31
2022-09-25T03:08:20.541Z,76.40
2022-09-25T03:12:25.098Z,76.40
2022-09-25T03:16:34.996Z,76.37
2022-09-25T03:20:38.378Z,76.29
2022-09-25T03:24:41.516Z,76.44
2022-09-25T03:28:47.987Z,76.11
2022-09-25T03:32:51.010Z,76.31
2022-09-25T03:36:54.253Z,76.63
2022-09-25T03:40:57.330Z,76.66
2022-09-25T03:45:02.329Z,76.75
2022-09-25T03:49:05.752Z,76.75
2022-09-25T03:53:09.291Z,76.90
2022-09-25T03:57:14.982Z,77.11
2022-09-25T04:01:20.123Z,77.02
2022-09-25T04:05:23.138Z,77.13
2022-09-25T04:09:26.299Z,77.06
2022-09-25T04:13:31.530Z,76.97
2022-09-25T04:17:35.871Z,76.75
2022-09-25T04:21:39.056Z,77.02
2022-09-25T04:25:42.068Z,77.09
2022-09-25T04:29:45.068Z,77.03
2022-09-25T04:33:49.646Z,76.91
2022-09-25T04:37:52.714Z,76.83
2022-09-25T04:41:55.696Z,77.21
2022-09-25T04:46:02.879Z,77.35
2022-09-25T04:50:08.675Z,77.58
2022-09-25T04:54:11.892Z,77.52
2022-09-25T04:58:15.219Z,77.37
2022-09-25T05:02:18.399Z,77.70
2022-09-25T05:06:23.574Z,77.34
2022-09-25T05:10:29.178Z,77.47
2022-09-25T05:14:32.375Z,77.43
2022-09-25T05:18:35.589Z,77.32
2022-09-25T05:22:39.947Z,77.43
2022-09-25T05:26:43.098Z,77.57
2022-09-25T05:30:46.101Z,77.38
2022-09-25T05:34:49.110Z,77.39
2022-09-25T05:38:54.073Z,77.48
2022-09-25T05:42:58.345Z,77.63
2022-09-25T05:47:01.944Z,77.63
2022-09-25T05:51:05.702Z,77.92
2022-09-25T05:55:11.159Z,77.83
2022-09-25T05:59:14.362Z,78.15
2022-09-25T06:03:18.397Z,78.10
2022-09-25T06:07:21.822Z,78.16
2022-09-25T06:11:27.973Z,78.44
2022-09-25T06:15:37.522Z,78.23
2022-09-25T06:19:40.645Z,78.34
2022-09-25T06:23:44.968Z,78.48
2022-09-25T06:27:50.140Z,78.51
2022-09-25T06:31:53.421Z,78.69
2022-09-25T06:35:56.399Z,78.44
2022-09-25T06:39:59.388Z,78.63
2022-09-25T06:44:03.891Z,78.55
2022-09-25T06:48:08.919Z,78.63
2022-09-25T06:52:12.480Z,78.38
2022-09-25T06:56:15.471Z,78.26
2022-09-25T07:00:20.293Z,78.44
2022-09-25T07:04:23.244Z,77.94
2022-09-25T07:08:26.364Z,78.09
2022-09-25T07:12:29.552Z,77.64
2022-09-25T07:16:34.711Z,77.43
2022-09-25T07:20:37.928Z,77.31
2022-09-25T07:24:40.914Z,77.06
2022-09-25T07:28:45.722Z,76.93
2022-09-25T07:32:50.075Z,76.47
2022-09-25T07:36:55.017Z,76.58
2022-09-25T07:40:58.111Z,76.34
2022-09-25T07:45:01.181Z,76.62
2022-09-25T07:49:05.590Z,76.59
2022-09-25T07:53:08.620Z,76.51
2022-09-25T07:57:13.216Z,76.20
2022-09-25T08:01:16.343Z,76.10
2022-09-25T08:05:20.765Z,76.05
2022-09-25T08:09:23.820Z,76.16
2022-09-25T08:13:27.040Z,76.30
2022-09-25T08:17:31.438Z,75.87
2022-09-25T08:21:36.698Z,75.75
2022-09-25T08:25:39.825Z,75.27
2022-09-25T08:29:42.786Z,75.37
2022-09-25T08:33:47.027Z,75.34
2022-09-25T08:37:51.616Z,75.36
2022-09-25T08:41:56.416Z,74.88
2022-09-25T08:46:18.825Z,74.94
2022-09-25T08:50:24.458Z,74.75
2022-09-25T08:54:32.840Z,73.94
2022-09-25T08:58:42.720Z,73.84
2022-09-25T09:02:49.175Z,73.57
2022-09-25T09:07:21.959Z,73.73
2022-09-25T09:11:25.745Z,73.00
2022-09-25T09:15:36.707Z,73.27
2022-09-25T09:19:39.739Z,73.12
2022-09-25T09:23:52.696Z,72.79
2022-09-25T09:28:19.245Z,72.53
2022-09-25T09:32:38.907Z,71.87
2022-09-25T09:36:50.956Z,72.21
2022-09-25T09:41:10.126Z,71.76
2022-09-25T09:45:21.041Z,71.71
2022-09-25T09:49:36.093Z,71.65
2022-09-25T09:53:43.881Z,71.63
2022-09-25T09:57:51.941Z,71.53
2022-09-25T10:02:02.378Z,70.56
2022-09-25T10:06:10.924Z,70.61
2022-09-25T10:10:15.623Z,70.42
2022-09-25T10:14:22.617Z,70.29
2022-09-25T10:18:32.528Z,69.69
2022-09-25T10:22:40.219Z,69.81
2022-09-25T10:26:43.440Z,69.30
2022-09-25T10:30:47.915Z,69.36
2022-09-25T10:34:54.832Z,69.62
2022-09-25T10:39:18.027Z,69.20
2022-09-25T10:43:24.047Z,69.66
2022-09-25T10:47:49.884Z,69.87
2022-09-25T10:52:05.494Z,70.16
2022-09-25T10:56:12.637Z,70.32
2022-09-25T11:00:22.501Z,70.26
2022-09-25T11:04:29.137Z,70.32
2022-09-25T11:08:37.979Z,70.39
2022-09-25T11:12:45.612Z,70.70
2022-09-25T11:16:51.464Z,70.96
2022-09-25T11:21:03.033Z,70.87
2022-09-25T11:25:15.848Z,70.78
2022-09-25T11:29:25.535Z,70.70
2022-09-25T11:33:42.286Z,70.64
2022-09-25T11:37:53.574Z,70.98
2022-09-25T11:42:03.452Z,70.88
2022-09-25T11:46:19.031Z,71.10
2022-09-25T11:50:33.505Z,70.88
2022-09-25T11:54:47.929Z,70.79
2022-09-25T11:59:08.656Z,70.63
2022-09-25T12:03:26.973Z,70.74
2022-09-25T12:07:44.034Z,70.72
2022-09-25T12:11:54.774Z,71.14
2022-09-25T12:16:09.747Z,71.08
2022-09-25T12:20:24.603Z,71.13
2022-09-25T12:24:40.150Z,70.78
2022-09-25T12:28:56.454Z,70.78
2022-09-25T12:33:12.709Z,70.45
2022-09-25T12:37:28.609Z,70.19
2022-09-25T12:41:36.891Z,70.22
2022-09-25T12:45:44.866Z,70.00
2022-09-25T12:49:56.632Z,69.68
2022-09-25T12:54:03.254Z,70.05
2022-09-25T12:58:18.344Z,69.86
2022-09-25T13:02:29.870Z,69.75
2022-09-25T13:06:42.505Z,69.52
2022-09-25T13:10:51.395Z,69.27
2022-09-25T13:14:59.300Z,69.40
2022-09-25T13:19:13.925Z,69.39
2022-09-25T13:23:28.633Z,69.43
2022-09-25T13:27:43.629Z,69.14
2022-09-25T13:31:47.674Z,68.96
2022-09-25T13:36:02.666Z,69.32
2022-09-25T13:40:35.686Z,69.52
2022-09-25T13:45:09.730Z,69.12
2022-09-25T13:49:34.618Z,69.11
2022-09-25T13:53:56.519Z,68.83
2022-09-25T13:58:04.363Z,69.04
2022-09-25T14:02:38.424Z,68.92
2022-09-25T14:06:43.123Z,68.92
2022-09-25T14:10:48.149Z,69.01
2022-09-25T14:14:59.569Z,69.11
2022-09-25T14:19:04.476Z,69.27
2022-09-25T14:23:14.543Z,69.21
2022-09-25T14:27:24.135Z,69.52
2022-09-25T14:31:43.479Z,69.71
2022-09-25T14:35:53.784Z,69.61
2022-09-25T14:40:05.436Z,69.81
2022-09-25T14:44:23.655Z,70.11
2022-09-25T14:48:32.728Z,70.25
2022-09-25T14:52:37.831Z,70.53
2022-09-25T14:56:41.024Z,70.63
2022-09-25T15:00:49.206Z,70.68
2022-09-25T15:04:58.092Z,71.17
2022-09-25T15:09:02.701Z,71.22
2022-09-25T15:13:15.960Z,71.07
2022-09-25T15:17:24.951Z,71.10
2022-09-25T15:21:31.701Z,71.52
2022-09-25T15:25:39.509Z,71.25
2022-09-25T15:29:46.473Z,71.47
2022-09-25T15:34:03.736Z,71.43
2022-09-25T15:38:13.523Z,71.41
2022-09-25T15:42:16.768Z,71.63
2022-09-25T15:46:35.579Z,71.55
2022-09-25T15:50:43.698Z,71.58
2022-09-25T15:54:49.174Z,71.72
2022-09-25T15:58:56.044Z,72.06
2022-09-25T16:03:19.930Z,72.15
2022-09-25T16:07:29.366Z,72.22
2022-09-25T16:11:33.970Z,72.51
2022-09-25T16:15:46.087Z,72.68
2022-09-25T16:19:59.682Z,72.63
2022-09-25T16:24:07.480Z,73.10
2022-09-25T16:28:19.499Z,72.88
2022-09-25T16:32:24.494Z,73.08
2022-09-25T16:36:37.346Z,72.93
2022-09-25T16:40:40.623Z,73.33
2022-09-25T16:44:47.311Z,73.15
2022-09-25T16:49:00.585Z,73.15
2022-09-25T16:53:04.838Z,73.53
2022-09-25T16:57:08.189Z,73.71
2022-09-25T17:01:13.195Z,73.78
2022-09-25T17:05:19.557Z,73.88
2022-09-25T17:09:22.550Z,74.10
2022-09-25T17:13:30.792Z,74.02
2022-09-25T17:17:35.164Z,74.29
2022-09-25T17:21:38.367Z,74.42
2022-09-25T17:25:44.932Z,74.29
2022-09-25T17:29:48.226Z,74.28
2022-09-25T17:33:52.824Z,74.50
2022-09-25T17:37:55.989Z,74.57
2022-09-25T17:41:59.024Z,74.64
2022-09-25T17:46:02.392Z,74.74
2022-09-25T17:50:07.914Z,74.74
2022-09-25T17:54:12.743Z,74.95
2022-09-25T17:58:16.063Z,75.24
2022-09-25T18:02:19.125Z,75.20
2022-09-25T18:06:24.199Z,75.52
2022-09-25T18:10:29.047Z,76.14
2022-09-25T18:14:34.140Z,76.05
2022-09-25T18:18:50.979Z,76.34
2022-09-25T18:22:55.359Z,76.39
2022-09-25T18:26:59.991Z,76.67
2022-09-25T18:31:03.392Z,77.12
2022-09-25T18:35:08.741Z,77.53
2022-09-25T18:39:17.502Z,77.82
2022-09-25T18:43:23.032Z,77.89
2022-09-25T18:47:26.101Z,78.08
2022-09-25T18:51:29.094Z,78.11
2022-09-25T18:55:33.493Z,78.08
2022-09-25T18:59:36.664Z,77.98
2022-09-25T19:03:41.092Z,78.28
2022-09-25T19:07:44.189Z,78.37
2022-09-25T19:11:48.515Z,78.76
2022-09-25T19:15:51.773Z,78.93
2022-09-25T19:19:54.808Z,79.18
2022-09-25T19:23:57.820Z,79.17
2022-09-25T19:28:02.892Z,79.45
2022-09-25T19:32:07.465Z,79.59
2022-09-25T19:36:15.291Z,79.99
2022-09-25T19:40:36.336Z,80.26
2022-09-25T19:44:41.337Z,80.09
2022-09-25T19:48:44.867Z,80.24
2022-09-25T19:52:51.134Z,80.33
2022-09-25T19:56:54.478Z,80.53
2022-09-25T20:01:00.580Z,80.79
2022-09-25T20:05:13.287Z,80.51
2022-09-25T20:09:22.168Z,80.38
2022-09-25T20:13:25.374Z,80.38
2022-09-25T20:17:29.803Z,80.39
2022-09-25T20:21:35.079Z,80.40
2022-09-25T20:25:38.409Z,80.43
2022-09-25T20:29:41.618Z,80.56
2022-09-25T20:33:46.176Z,80.32
2022-09-25T20:37:49.652Z,80.62
2022-09-25T20:41:52.863Z,80.65
2022-09-25T20:46:04.080Z,81.05
2022-09-25T20:50:09.433Z,81.18
2022-09-25T20:54:13.576Z,81.50
2022-09-25T20:58:16.774Z,81.14
2022-09-25T21:02:19.906Z,81.40
2022-09-25T21:06:26.802Z,81.51
2022-09-25T21:10:30.000Z,81.84
2022-09-25T21:14:33.632Z,81.65
2022-09-25T21:18:37.175Z,81.82
2022-09-25T21:22:42.432Z,81.70
2022-09-25T21:26:46.254Z,81.89
2022-09-25T21:30:49.685Z,81.93
2022-09-25T21:34:53.003Z,82.01
2022-09-25T21:38:58.870Z,81.82
2022-09-25T21:43:02.000Z,81.98
2022-09-25T21:47:05.092Z,81.97
2022-09-25T21:51:09.322Z,82.17
2022-09-25T21:55:14.094Z,82.24
2022-09-25T21:59:17.275Z,82.27
2022-09-25T22:03:20.755Z,82.05
2022-09-25T22:07:23.790Z,82.00
2022-09-25T22:11:29.251Z,82.34
2022-09-25T22:15:32.194Z,82.57
2022-09-25T22:19:35.181Z,82.29
2022-09-25T22:23:38.379Z,82.36
2022-09-25T22:27:42.986Z,82.30
2022-09-25T22:31:45.949Z,82.36
2022-09-25T22:35:49.336Z,82.35
2022-09-25T22:39:52.312Z,82.51
2022-09-25T22:43:58.576Z,82.29
2022-09-25T22:48:03.936Z,82.20
2022-09-25T22:52:07.120Z,82.31
2022-09-25T22:56:12.994Z,82.24
2022-09-25T23:00:17.610Z,82.14
2022-09-25T23:04:23.332Z,82.26
2022-09-25T23:08:26.384Z,82.48
2022-09-25T23:12:30.857Z,82.38
2022-09-25T23:16:36.043Z,82.50
2022-09-25T23:20:39.059Z,82.62
2022-09-25T23:24:42.038Z,82.60
2022-09-25T23:28:45.025Z,82.65
2022-09-25T23:32:49.457Z,82.74
2022-09-25T23:36:52.637Z,82.53
2022-09-25T23:40:55.656Z,82.42
2022-09-25T23:44:58.838Z,82.81
2022-09-25T23:49:04.205Z,82.56
2022-09-25T23:53:07.132Z,82.72
2022-09-25T23:57:10.177Z,82.71
